Time;durP1;ratioP1;P1;durP2;ratioP2;P2;SDS_P1;SDS_P2;PMS_P1;PMS_P2;Temp;Humidity;BMP_temperature;BMP_pressure;BME280_temperature;BME280_humidity;BME280_pressure;Samples;Min_cycle;Max_cycle;Signal;HPM_P1;HPM_P2
2021/06/04 00:01:21;;;;;;;3.03;2.80;;;17.10;45.80;;;;;;5050844;28;20965;-72
2021/06/04 00:03:47;;;;;;;7.80;3.20;;;17.00;46.00;;;;;;5050780;28;20747;-72
2021/06/04 00:06:13;;;;;;;2.90;2.70;;;17.00;46.00;;;;;;5049377;28;20478;-73
2021/06/04 00:08:39;;;;;;;4.20;3.30;;;16.90;45.90;;;;;;5050396;28;20563;-72
2021/06/04 00:11:15;;;;;;;3.17;2.87;;;16.90;46.40;;;;;;5050182;28;20420;-72
2021/06/04 00:13:43;;;;;;;3.53;2.53;;;16.90;46.00;;;;;;5050236;28;20419;-72
2021/06/04 00:16:21;;;;;;;3.77;3.30;;;16.80;46.30;;;;;;5050676;28;20918;-72
2021/06/04 00:18:49;;;;;;;3.00;2.67;;;16.70;46.60;;;;;;5050540;28;20424;-72
2021/06/04 00:21:19;;;;;;;2.93;2.67;;;16.70;47.30;;;;;;5051243;28;20440;-72
2021/06/04 00:23:45;;;;;;;2.30;2.10;;;16.70;47.30;;;;;;5053895;28;20412;-72
2021/06/04 00:26:12;;;;;;;4.27;3.10;;;16.70;47.30;;;;;;5054295;28;20413;-72
2021/06/04 00:28:38;;;;;;;3.80;3.40;;;16.60;47.20;;;;;;5053854;28;20455;-73
2021/06/04 00:31:05;;;;;;;3.27;3.07;;;16.60;47.20;;;;;;5053736;28;20411;-73
2021/06/04 00:33:31;;;;;;;4.47;2.83;;;16.60;47.20;;;;;;5054082;28;20441;-73
2021/06/04 00:35:57;;;;;;;4.10;3.73;;;16.50;47.10;;;;;;5053848;28;20409;-73
2021/06/04 00:38:23;;;;;;;5.37;2.93;;;16.50;48.30;;;;;;5052435;28;20503;-72
2021/06/04 00:40:55;;;;;;;5.30;3.20;;;16.50;48.20;;;;;;5053690;28;20452;-72
2021/06/04 00:43:23;;;;;;;2.63;2.37;;;16.40;48.20;;;;;;5053937;28;20175;-72
2021/06/04 00:45:53;;;;;;;3.13;2.67;;;16.40;48.20;;;;;;5053754;28;20815;-72
2021/06/04 00:48:21;;;;;;;4.20;3.00;;;16.30;48.40;;;;;;5053669;28;20453;-72
2021/06/04 00:51:07;;;;;;;14.10;3.07;;;16.30;48.90;;;;;;5053353;28;20416;-72
2021/06/04 00:53:33;;;;;;;4.00;3.30;;;16.20;49.00;;;;;;5053718;28;20420;-72
2021/06/04 00:55:59;;;;;;;3.43;3.10;;;16.20;49.20;;;;;;5053684;28;20405;-72
2021/06/04 00:58:30;;;;;;;3.93;2.93;;;16.20;49.50;;;;;;5053555;28;20417;-72
2021/06/04 01:00:57;;;;;;;3.60;2.57;;;16.20;49.70;;;;;;5051998;28;20185;-72
2021/06/04 01:03:26;;;;;;;5.60;3.20;;;16.20;49.50;;;;;;5053472;28;20495;-72
2021/06/04 01:05:59;;;;;;;4.17;3.03;;;16.10;50.00;;;;;;5053420;28;20413;-72
2021/06/04 01:08:42;;;;;;;7.17;3.27;;;16.10;50.40;;;;;;5053344;28;20811;-72
2021/06/04 01:11:31;;;;;;;8.90;3.47;;;16.10;50.80;;;;;;5053068;28;20493;-73
2021/06/04 01:14:37;;;;;;;3.37;2.57;;;16.10;51.40;;;;;;5051907;28;20478;-73
2021/06/04 01:17:09;;;;;;;3.07;2.83;;;16.10;50.80;;;;;;5058011;28;20816;-73
2021/06/04 01:19:47;;;;;;;6.37;3.63;;;16.10;50.80;;;;;;5051617;28;20507;-72
2021/06/04 01:22:21;;;;;;;14.37;3.50;;;16.10;50.90;;;;;;5051787;28;20556;-72
2021/06/04 01:25:00;;;;;;;3.40;3.03;;;16.00;51.00;;;;;;5052904;28;20484;-73
2021/06/04 01:27:33;;;;;;;3.50;2.90;;;16.00;51.00;;;;;;5053038;28;20412;-71
2021/06/04 01:30:17;;;;;;;4.10;2.53;;;16.00;51.10;;;;;;5053087;28;20816;-73
2021/06/04 01:32:44;;;;;;;4.93;2.60;;;16.00;51.70;;;;;;5052785;28;20774;-73
2021/06/04 01:35:20;;;;;;;4.40;3.70;;;16.00;51.60;;;;;;5051775;28;20423;-73
2021/06/04 01:37:46;;;;;;;4.60;3.00;;;16.00;51.10;;;;;;5052763;28;20418;-72
2021/06/04 01:40:17;;;;;;;5.43;3.23;;;16.00;50.30;;;;;;5052599;28;20913;-72
2021/06/04 01:42:46;;;;;;;4.40;3.53;;;16.00;50.70;;;;;;5052890;28;20190;-73
2021/06/04 01:45:24;;;;;;;4.00;3.00;;;15.90;50.60;;;;;;5052975;28;20411;-72
2021/06/04 01:47:57;;;;;;;3.20;2.93;;;15.80;51.60;;;;;;5052784;28;20762;-73
2021/06/04 01:50:32;;;;;;;3.33;3.00;;;15.70;51.60;;;;;;5051389;28;20424;-73
2021/06/04 01:53:03;;;;;;;4.00;3.10;;;15.60;52.40;;;;;;5052694;28;20844;-73
2021/06/04 01:55:33;;;;;;;4.17;3.40;;;15.50;52.80;;;;;;5051449;28;20415;-73
2021/06/04 01:58:06;;;;;;;3.40;3.10;;;15.50;52.90;;;;;;5052573;28;20407;-73
2021/06/04 02:00:40;;;;;;;4.70;3.03;;;15.40;53.10;;;;;;5052232;28;20412;-73
2021/06/04 02:03:10;;;;;;;4.17;3.87;;;15.40;53.50;;;;;;5052340;28;20428;-73
2021/06/04 02:05:37;;;;;;;6.67;4.00;;;15.30;53.50;;;;;;5052370;28;20406;-73
2021/06/04 02:08:04;;;;;;;6.30;3.00;;;15.30;54.20;;;;;;5052225;28;20514;-73
2021/06/04 02:10:37;;;;;;;5.63;3.60;;;15.20;53.80;;;;;;5052111;28;20404;-73
2021/06/04 02:13:07;;;;;;;3.20;2.90;;;15.10;53.70;;;;;;5052082;28;20483;-73
2021/06/04 02:15:38;;;;;;;6.60;3.90;;;15.10;53.90;;;;;;5052347;28;20844;-73
2021/06/04 02:18:22;;;;;;;3.87;3.57;;;15.00;54.10;;;;;;5052519;28;20414;-73
2021/06/04 02:20:54;;;;;;;7.73;3.07;;;15.00;54.50;;;;;;5052285;28;20407;-73
2021/06/04 02:23:28;;;;;;;2.90;2.63;;;15.00;55.00;;;;;;5052134;28;20410;-72
2021/06/04 02:26:11;;;;;;;4.10;2.80;;;15.00;54.50;;;;;;5052034;28;20748;-72
2021/06/04 02:28:48;;;;;;;4.90;3.40;;;15.00;54.80;;;;;;5051838;28;20483;-74
2021/06/04 02:31:42;;;;;;;4.07;3.20;;;15.10;54.50;;;;;;5050901;28;20534;-73
2021/06/04 02:34:16;;;;;;;7.70;2.90;;;15.10;54.70;;;;;;5052150;28;20407;-73
2021/06/04 02:36:56;;;;;;;8.13;2.80;;;15.10;54.00;;;;;;5051937;28;20440;-74
2021/06/04 02:39:41;;;;;;;3.93;2.67;;;15.10;53.70;;;;;;5051951;28;20486;-73
2021/06/04 02:42:26;;;;;;;3.23;2.93;;;15.10;54.10;;;;;;5051920;28;20426;-72
2021/06/04 02:45:11;;;;;;;3.93;3.50;;;15.10;54.20;;;;;;5051363;28;20445;-73
2021/06/04 02:47:47;;;;;;;3.37;3.07;;;15.00;54.60;;;;;;5051563;28;20427;-73
2021/06/04 02:50:19;;;;;;;4.60;3.83;;;15.00;54.60;;;;;;5050340;28;20945;-72
2021/06/04 02:52:45;;;;;;;5.53;4.33;;;15.00;54.70;;;;;;5051780;28;20464;-73
2021/06/04 02:55:17;;;;;;;3.97;3.57;;;15.00;54.70;;;;;;5051158;28;20989;-72
2021/06/04 02:57:42;;;;;;;4.07;3.43;;;15.00;55.00;;;;;;5051075;28;20259;-72
2021/06/04 03:00:17;;;;;;;9.13;3.47;;;15.00;54.70;;;;;;5049513;28;20457;-72
2021/06/04 03:02:43;;;;;;;4.00;3.33;;;15.10;54.40;;;;;;5050921;28;20688;-72
2021/06/04 03:05:15;;;;;;;6.53;3.13;;;15.00;54.00;;;;;;5051034;28;20455;-71
2021/06/04 03:07:42;;;;;;;3.40;3.10;;;15.00;54.40;;;;;;5051025;28;20441;-71
2021/06/04 03:10:13;;;;;;;2.47;2.27;;;15.00;54.40;;;;;;5050609;28;20967;-71
2021/06/04 03:12:43;;;;;;;3.60;3.23;;;15.00;54.40;;;;;;5050744;28;20437;-73
2021/06/04 03:15:18;;;;;;;4.10;3.70;;;15.00;54.00;;;;;;5051025;28;20488;-72
2021/06/04 03:17:44;;;;;;;4.17;3.77;;;15.10;54.20;;;;;;5050905;28;20412;-72
2021/06/04 03:20:15;;;;;;;3.93;3.17;;;15.10;54.40;;;;;;5050542;28;20498;-72
2021/06/04 03:22:42;;;;;;;4.57;3.10;;;15.10;54.50;;;;;;5050677;28;20735;-72
2021/06/04 03:25:36;;;;;;;2.70;2.50;;;15.20;54.50;;;;;;5050568;28;20416;-72
2021/06/04 03:28:03;;;;;;;3.57;2.80;;;15.30;54.00;;;;;;5049492;28;20490;-72
2021/06/04 03:30:35;;;;;;;9.60;3.67;;;15.30;54.10;;;;;;5050712;28;20416;-72
2021/06/04 03:33:00;;;;;;;3.60;3.27;;;15.40;53.50;;;;;;5050766;28;20426;-72
2021/06/04 03:35:27;;;;;;;5.40;2.97;;;15.40;52.70;;;;;;5050612;28;20814;-73
2021/06/04 03:37:53;;;;;;;2.73;2.10;;;15.40;51.80;;;;;;5050807;28;20198;-72
2021/06/04 03:40:23;;;;;;;3.00;2.70;;;15.40;51.70;;;;;;5050436;28;20407;-73
2021/06/04 03:42:50;;;;;;;10.53;4.30;;;15.40;51.20;;;;;;5050696;28;20201;-72
2021/06/04 03:45:19;;;;;;;4.90;3.40;;;15.40;51.20;;;;;;5050595;28;20419;-72
2021/06/04 03:47:45;;;;;;;4.03;3.13;;;15.40;51.30;;;;;;5050502;28;20418;-73
2021/06/04 03:50:13;;;;;;;3.03;2.70;;;15.40;51.50;;;;;;5050062;28;20467;-73
2021/06/04 03:52:40;;;;;;;3.67;3.33;;;15.40;51.40;;;;;;5050520;28;20474;-72
2021/06/04 03:55:08;;;;;;;4.00;2.73;;;15.40;51.20;;;;;;5048999;28;20423;-72
2021/06/04 03:57:36;;;;;;;3.87;2.80;;;15.40;51.20;;;;;;5052314;28;20514;-72
2021/06/04 04:00:14;;;;;;;4.47;3.80;;;15.50;51.30;;;;;;5054140;28;20411;-73
2021/06/04 04:02:39;;;;;;;5.67;3.70;;;15.60;51.40;;;;;;5054207;28;20443;-71
2021/06/04 04:05:06;;;;;;;4.73;3.60;;;15.60;51.40;;;;;;5054318;28;20500;-72
2021/06/04 04:07:32;;;;;;;4.13;3.07;;;15.70;51.50;;;;;;5053215;28;20643;-72
2021/06/04 04:09:58;;;;;;;8.10;4.37;;;15.80;50.90;;;;;;5054107;28;20469;-72
2021/06/04 04:12:26;;;;;;;3.47;3.17;;;15.90;50.80;;;;;;5053033;28;20667;-72
2021/06/04 04:14:52;;;;;;;3.40;3.10;;;16.00;49.80;;;;;;5054625;28;20426;-72
2021/06/04 04:17:17;;;;;;;3.70;3.40;;;16.10;48.80;;;;;;5054417;28;20413;-72
2021/06/04 04:19:43;;;;;;;10.13;3.37;;;16.20;47.30;;;;;;5054427;28;20966;-71
2021/06/04 04:22:08;;;;;;;3.60;2.90;;;16.20;46.90;;;;;;5054261;28;20829;-72
2021/06/04 04:24:36;;;;;;;3.43;2.90;;;16.20;46.80;;;;;;5054044;28;20543;-72
2021/06/04 04:27:03;;;;;;;3.17;2.87;;;16.10;46.70;;;;;;5054324;28;20181;-72
2021/06/04 04:29:29;;;;;;;5.30;4.40;;;16.10;46.70;;;;;;5053578;28;20821;-74
2021/06/04 04:31:59;;;;;;;3.47;3.17;;;16.20;47.20;;;;;;5053794;28;20508;-73
2021/06/04 04:34:26;;;;;;;5.97;3.97;;;16.30;47.00;;;;;;5054015;28;20702;-73
2021/06/04 04:36:55;;;;;;;4.80;4.30;;;16.40;46.70;;;;;;5053526;28;20409;-75
2021/06/04 04:39:24;;;;;;;4.37;3.97;;;16.60;46.00;;;;;;5053520;28;20468;-72
2021/06/04 04:41:50;;;;;;;3.20;2.90;;;16.70;45.00;;;;;;5053435;28;20524;-72
2021/06/04 04:44:20;;;;;;;4.63;4.23;;;16.90;45.10;;;;;;5053460;28;20505;-72
2021/06/04 04:46:46;;;;;;;2.83;2.50;;;17.10;44.50;;;;;;5053535;28;20449;-73
2021/06/04 04:49:12;;;;;;;3.90;2.90;;;17.30;42.70;;;;;;5053156;28;20445;-72
2021/06/04 04:51:39;;;;;;;6.00;4.10;;;17.60;41.60;;;;;;5053168;28;20463;-73
2021/06/04 04:54:07;;;;;;;5.70;4.30;;;17.80;41.80;;;;;;5053416;28;20436;-72
2021/06/04 04:56:32;;;;;;;5.77;5.27;;;18.70;40.40;;;;;;5053233;28;20822;-72
2021/06/04 04:58:58;;;;;;;3.57;3.27;;;19.90;37.00;;;;;;5053478;28;20413;-73
2021/06/04 05:01:23;;;;;;;8.17;4.70;;;21.40;30.50;;;;;;5053227;28;20199;-72
2021/06/04 05:03:49;;;;;;;4.60;4.20;;;22.70;27.10;;;;;;5053302;28;20178;-73
2021/06/04 05:06:15;;;;;;;4.47;4.07;;;23.70;25.20;;;;;;5053325;28;20667;-73
2021/06/04 05:08:41;;;;;;;4.70;4.30;;;24.30;23.50;;;;;;5052498;28;20456;-73
2021/06/04 05:11:07;;;;;;;4.47;4.10;;;24.70;22.30;;;;;;5052723;28;20228;-74
2021/06/04 05:13:35;;;;;;;6.80;4.67;;;24.50;22.20;;;;;;5053010;28;20410;-73
2021/06/04 05:16:03;;;;;;;6.53;5.37;;;25.00;21.50;;;;;;5054065;28;20409;-74
2021/06/04 05:18:34;;;;;;;5.00;4.60;;;25.90;20.40;;;;;;5053216;28;20783;-75
2021/06/04 05:21:01;;;;;;;7.07;4.70;;;;;;;;;;5052944;28;20406;-74
2021/06/04 05:23:27;;;;;;;9.80;4.77;;;;;;;;;;5052870;28;20413;-74
2021/06/04 05:25:54;;;;;;;5.47;4.97;;;28.20;15.20;;;;;;5052618;28;20498;-75
2021/06/04 05:28:23;;;;;;;4.60;4.20;;;28.60;14.80;;;;;;5052811;28;21076;-74
2021/06/04 05:30:52;;;;;;;4.60;4.30;;;28.80;14.40;;;;;;5052566;28;20971;-73
2021/06/04 05:33:22;;;;;;;6.43;5.20;;;29.30;13.30;;;;;;5052871;28;20958;-74
2021/06/04 05:35:48;;;;;;;7.90;5.10;;;29.70;13.50;;;;;;5053038;28;20444;-74
2021/06/04 05:38:14;;;;;;;5.17;4.87;;;30.10;12.90;;;;;;5052779;28;20463;-73
2021/06/04 05:40:43;;;;;;;5.63;5.20;;;30.30;11.40;;;;;;5052488;28;20420;-75
2021/06/04 05:43:12;;;;;;;6.77;6.17;;;30.60;11.50;;;;;;5052663;28;20857;-74
2021/06/04 05:45:41;;;;;;;6.63;5.83;;;31.10;10.90;;;;;;5052921;28;20491;-74
2021/06/04 05:48:07;;;;;;;7.67;7.07;;;31.40;10.60;;;;;;5052528;28;20428;-74
2021/06/04 05:50:37;;;;;;;7.57;7.07;;;31.60;9.50;;;;;;5052340;28;20464;-74
2021/06/04 05:53:05;;;;;;;6.90;6.50;;;31.60;9.60;;;;;;5052359;28;20548;-72
2021/06/04 05:55:33;;;;;;;7.60;7.00;;;31.60;9.90;;;;;;5051241;28;20922;-75
2021/06/04 05:57:59;;;;;;;7.60;7.00;;;31.70;9.10;;;;;;5052534;28;20515;-75
2021/06/04 06:00:29;;;;;;;7.80;7.40;;;31.90;9.40;;;;;;5052112;28;20512;-75
2021/06/04 06:02:56;;;;;;;8.33;7.83;;;31.80;9.80;;;;;;5052395;28;20198;-73
2021/06/04 06:05:21;;;;;;;8.60;8.00;;;31.70;9.50;;;;;;5052337;28;20440;-74
2021/06/04 06:07:47;;;;;;;9.23;8.60;;;31.80;9.60;;;;;;5052208;28;20421;-74
2021/06/04 06:10:13;;;;;;;9.77;9.27;;;31.80;9.30;;;;;;5050699;28;20210;-75
2021/06/04 06:12:39;;;;;;;9.97;9.37;;;31.80;9.30;;;;;;5052120;28;20226;-74
2021/06/04 06:15:06;;;;;;;10.20;9.77;;;32.00;9.40;;;;;;5052294;28;20728;-74
2021/06/04 06:17:32;;;;;;;10.43;10.03;;;32.20;8.50;;;;;;5051996;28;20409;-74
2021/06/04 06:19:58;;;;;;;9.93;9.53;;;33.00;7.00;;;;;;5050754;28;20417;-74
2021/06/04 06:22:24;;;;;;;11.13;10.47;;;33.20;6.80;;;;;;5052047;28;20775;-73
2021/06/04 06:24:51;;;;;;;10.90;10.40;;;33.50;7.30;;;;;;5051617;28;20210;-74
2021/06/04 06:27:17;;;;;;;11.37;10.87;;;33.60;7.00;;;;;;5052068;28;20466;-75
2021/06/04 06:29:42;;;;;;;12.73;12.03;;;33.80;6.30;;;;;;5051481;28;20465;-74
2021/06/04 06:32:08;;;;;;;13.60;13.00;;;34.20;6.50;;;;;;5052040;28;20199;-75
2021/06/04 06:34:35;;;;;;;14.77;14.07;;;34.40;5.00;;;;;;5051578;28;20228;-75
2021/06/04 06:37:01;;;;;;;14.77;13.73;;;33.70;5.40;;;;;;5051580;28;20633;-74
2021/06/04 06:39:33;;;;;;;15.03;14.10;;;32.90;6.10;;;;;;5051899;28;20478;-74
2021/06/04 06:42:00;;;;;;;14.73;13.93;;;33.00;6.80;;;;;;5052058;28;20273;-75
2021/06/04 06:44:27;;;;;;;15.30;14.60;;;33.30;6.60;;;;;;5052033;28;20417;-74
2021/06/04 06:46:53;;;;;;;15.80;14.97;;;33.50;6.10;;;;;;5052061;28;20911;-75
2021/06/04 06:49:20;;;;;;;15.60;15.00;;;34.30;5.70;;;;;;5051517;28;20457;-76
2021/06/04 06:51:47;;;;;;;16.10;15.30;;;35.20;5.20;;;;;;5051676;28;20448;-75
2021/06/04 06:54:16;;;;;;;16.60;15.70;;;35.80;4.70;;;;;;5051698;28;20410;-75
2021/06/04 06:56:44;;;;;;;17.10;16.30;;;35.60;4.40;;;;;;5052170;28;20792;-74
2021/06/04 06:59:11;;;;;;;16.80;16.00;;;34.30;4.50;;;;;;5051495;28;20412;-76
2021/06/04 07:01:37;;;;;;;16.13;15.43;;;33.40;6.10;;;;;;5051323;28;20468;-73
2021/06/04 07:04:04;;;;;;;16.87;16.17;;;32.80;6.80;;;;;;5051574;28;20425;-75
2021/06/04 07:06:32;;;;;;;16.67;15.83;;;33.40;6.10;;;;;;5051060;28;20968;-75
2021/06/04 07:08:58;;;;;;;17.80;16.80;;;34.20;6.00;;;;;;5050856;28;20563;-75
2021/06/04 07:11:26;;;;;;;17.07;16.37;;;34.50;6.50;;;;;;5051078;28;20449;-75
2021/06/04 07:13:55;;;;;;;18.60;17.10;;;33.90;6.90;;;;;;5049696;28;20457;-75
2021/06/04 07:16:21;;;;;;;18.00;17.20;;;32.80;7.30;;;;;;5051049;28;20898;-74
2021/06/04 07:18:52;;;;;;;17.33;16.57;;;31.90;8.50;;;;;;5051102;28;20467;-74
2021/06/04 07:21:21;;;;;;;17.53;16.73;;;30.90;10.30;;;;;;5051764;28;20465;-76
2021/06/04 07:23:47;;;;;;;17.67;16.73;;;30.20;10.70;;;;;;5051082;28;20825;-75
2021/06/04 07:26:13;;;;;;;17.00;16.27;;;30.60;10.70;;;;;;5050922;28;20409;-75
2021/06/04 07:28:39;;;;;;;18.50;17.50;;;31.80;9.90;;;;;;5050880;28;20453;-75
2021/06/04 07:31:08;;;;;;;18.03;17.23;;;32.70;7.80;;;;;;5055042;28;20375;-76
2021/06/04 07:33:46;;;;;;;18.27;17.47;;;33.70;6.20;;;;;;5057806;28;20409;-75
2021/06/04 07:36:19;;;;;;;17.47;16.60;;;34.20;6.50;;;;;;5057516;28;20441;-75
2021/06/04 07:38:45;;;;;;;19.20;17.90;;;35.00;5.00;;;;;;5057730;28;20561;-75
2021/06/04 07:41:11;;;;;;;17.90;17.20;;;35.60;4.30;;;;;;5057648;28;20409;-75
2021/06/04 07:43:39;;;;;;;18.17;17.37;;;35.90;4.20;;;;;;5057451;28;20170;-75
2021/06/04 07:46:07;;;;;;;17.47;16.77;;;36.00;4.30;;;;;;5057801;28;20418;-73
2021/06/04 07:48:34;;;;;;;18.40;17.50;;;36.50;3.30;;;;;;5057353;28;20582;-73
2021/06/04 07:51:00;;;;;;;18.17;17.43;;;36.60;2.60;;;;;;5056982;28;20413;-73
2021/06/04 07:53:29;;;;;;;18.73;18.03;;;36.60;3.10;;;;;;5057851;28;20416;-73
2021/06/04 07:55:55;;;;;;;18.63;17.93;;;36.30;3.00;;;;;;5055502;28;20435;-73
2021/06/04 07:58:21;;;;;;;18.27;17.57;;;36.50;2.50;;;;;;5057586;28;20416;-73
2021/06/04 08:00:46;;;;;;;19.03;18.23;;;36.70;2.80;;;;;;5057136;28;20634;-73
2021/06/04 08:03:13;;;;;;;19.30;18.30;;;36.60;1.90;;;;;;5057491;28;20436;-75
2021/06/04 08:05:39;;;;;;;19.77;18.93;;;36.40;2.50;;;;;;5057444;28;20171;-74
2021/06/04 08:08:08;;;;;;;19.53;18.63;;;36.30;2.00;;;;;;5057148;28;20448;-75
2021/06/04 08:10:34;;;;;;;19.30;18.40;;;36.50;1.60;;;;;;5056805;28;20257;-75
2021/06/04 08:13:02;;;;;;;19.90;18.67;;;36.70;2.30;;;;;;5057091;28;20486;-76
2021/06/04 08:15:34;;;;;;;20.70;19.60;;;36.80;1.80;;;;;;5055979;28;21040;-74
2021/06/04 08:18:00;;;;;;;20.10;19.20;;;36.70;1.40;;;;;;5057030;28;20443;-74
2021/06/04 08:20:29;;;;;;;20.50;19.70;;;36.50;1.80;;;;;;5057383;28;20452;-72
2021/06/04 08:22:58;;;;;;;19.87;19.07;;;36.10;2.30;;;;;;5056942;28;20201;-73
2021/06/04 08:25:35;;;;;;;20.40;19.60;;;35.70;3.40;;;;;;5057378;28;20412;-75
2021/06/04 08:28:01;;;;;;;20.30;19.40;;;35.90;3.40;;;;;;5057070;28;20776;-74
2021/06/04 08:30:27;;;;;;;23.27;20.80;;;35.60;3.30;;;;;;5056913;28;20401;-73
2021/06/04 08:32:52;;;;;;;21.30;20.40;;;34.60;3.70;;;;;;5057317;28;20191;-73
2021/06/04 08:35:19;;;;;;;20.93;20.10;;;33.50;6.10;;;;;;5057194;28;20762;-74
2021/06/04 08:37:44;;;;;;;21.13;20.20;;;32.80;6.10;;;;;;5057597;28;20182;-73
2021/06/04 08:40:21;;;;;;;21.03;20.07;;;32.20;7.80;;;;;;5056017;28;20796;-72
2021/06/04 08:42:50;;;;;;;20.90;19.73;;;31.70;8.40;;;;;;5054140;28;20574;-73
2021/06/04 08:45:18;;;;;;;20.17;19.27;;;31.10;9.40;;;;;;5054002;28;20419;-73
2021/06/04 08:47:51;;;;;;;18.93;18.23;;;30.70;9.40;;;;;;5053043;28;20417;-73
2021/06/04 08:51:02;;;;;;;19.77;18.97;;;30.50;9.20;;;;;;5053700;28;20457;-74
2021/06/04 08:53:43;;;;;;;19.93;19.07;;;30.80;8.40;;;;;;5051599;22;21002;-72
2021/06/04 08:56:14;;;;;;;18.83;18.10;;;31.00;7.10;;;;;;5033420;28;20444;-71
2021/06/04 08:58:53;;;;;;;19.97;18.77;;;31.00;7.00;;;;;;5033400;28;20899;-71
2021/06/04 09:01:23;;;;;;;19.43;18.60;;;30.60;8.60;;;;;;5033218;28;20929;-71
2021/06/04 09:03:59;;;;;;;19.43;18.63;;;30.30;9.70;;;;;;5033355;28;20887;-71
2021/06/04 09:06:27;;;;;;;19.43;18.53;;;30.30;7.80;;;;;;5033256;28;20537;-71
2021/06/04 09:08:53;;;;;;;19.00;18.03;;;30.10;9.10;;;;;;5032937;28;20457;-71
2021/06/04 09:11:32;;;;;;;18.83;18.13;;;30.00;9.90;;;;;;5033166;28;20468;-72
2021/06/04 09:13:58;;;;;;;17.93;17.23;;;30.00;9.80;;;;;;5033179;28;20414;-73
2021/06/04 09:16:29;;;;;;;19.07;18.07;;;29.60;10.90;;;;;;5033259;28;20410;-71
2021/06/04 09:19:10;;;;;;;19.23;18.30;;;29.30;9.90;;;;;;5032632;28;20197;-71
2021/06/04 09:21:38;;;;;;;18.13;17.43;;;29.20;10.90;;;;;;5032774;28;20828;-72
2021/06/04 09:24:08;;;;;;;19.90;18.80;;;29.30;10.50;;;;;;5032620;28;20806;-71
2021/06/04 09:26:34;;;;;;;18.43;17.63;;;29.00;11.70;;;;;;5031472;28;20934;-71
2021/06/04 09:29:03;;;;;;;17.70;17.00;;;29.10;13.00;;;;;;5032486;28;20465;-71
2021/06/04 09:31:48;;;;;;;18.90;18.10;;;29.30;13.30;;;;;;5031603;28;20957;-71
2021/06/04 09:34:33;;;;;;;19.50;18.50;;;29.20;11.60;;;;;;5032954;28;20403;-72
2021/06/04 09:37:02;;;;;;;17.60;16.90;;;29.10;11.80;;;;;;5032724;28;20485;-72
2021/06/04 09:39:39;;;;;;;17.37;16.53;;;29.00;12.50;;;;;;5032182;28;20414;-71
2021/06/04 09:42:14;;;;;;;17.73;16.93;;;28.90;13.00;;;;;;5032420;28;20429;-73
2021/06/04 09:45:11;;;;;;;17.93;17.13;;;28.90;13.00;;;;;;5032612;28;20426;-71
2021/06/04 09:47:58;;;;;;;17.87;17.07;;;29.10;13.10;;;;;;5030691;28;20429;-71
2021/06/04 09:50:43;;;;;;;18.90;18.10;;;29.20;13.20;;;;;;5032031;28;20510;-73
2021/06/04 09:53:19;;;;;;;17.93;17.03;;;29.00;12.30;;;;;;5031483;28;20468;-70
2021/06/04 09:55:46;;;;;;;19.20;18.17;;;29.00;13.40;;;;;;5032299;28;20505;-71
2021/06/04 09:58:27;;;;;;;19.27;18.37;;;28.90;14.00;;;;;;5032286;28;20468;-71
2021/06/04 10:01:03;;;;;;;18.47;17.47;;;28.70;12.90;;;;;;5031904;28;20512;-71
2021/06/04 10:03:40;;;;;;;16.97;16.33;;;28.40;13.90;;;;;;5032140;28;20501;-71
2021/06/04 10:06:10;;;;;;;18.10;17.20;;;28.20;13.90;;;;;;5032113;28;20402;-71
2021/06/04 10:08:51;;;;;;;17.43;16.53;;;28.10;13.10;;;;;;5030815;28;20489;-71
2021/06/04 10:11:24;;;;;;;18.13;17.20;;;28.10;13.80;;;;;;5031826;28;20406;-71
2021/06/04 10:14:20;;;;;;;17.77;16.90;;;28.20;13.60;;;;;;5031883;28;20429;-73
2021/06/04 10:19:33;;;;;;;18.10;17.00;;;28.10;13.10;;;;;;5031790;28;20410;-73
2021/06/04 10:22:27;;;;;;;17.93;17.13;;;28.00;13.20;;;;;;5031785;28;20432;-71
2021/06/04 10:24:59;;;;;;;17.50;16.60;;;28.10;12.60;;;;;;5031098;28;20529;-71
2021/06/04 10:27:28;;;;;;;17.93;16.93;;;28.00;12.60;;;;;;5031734;28;20894;-73
2021/06/04 10:30:25;;;;;;;17.30;16.60;;;27.90;12.50;;;;;;5031384;28;20514;-72
2021/06/04 10:32:54;;;;;;;17.93;17.03;;;27.90;12.50;;;;;;5031734;28;20795;-72
2021/06/04 10:35:27;;;;;;;17.77;17.07;;;27.80;12.50;;;;;;5031844;28;20414;-72
2021/06/04 10:37:58;;;;;;;17.50;16.80;;;27.90;14.20;;;;;;5031610;28;20441;-73
2021/06/04 10:40:49;;;;;;;17.80;17.03;;;28.00;12.60;;;;;;5031166;28;20406;-71
2021/06/04 10:43:52;;;;;;;17.67;16.67;;;28.00;14.00;;;;;;5030620;28;20446;-72
2021/06/04 10:46:27;;;;;;;17.47;16.67;;;27.90;13.90;;;;;;5030116;28;20421;-72
2021/06/04 10:49:06;;;;;;;15.43;14.23;;;27.40;15.50;;;;;;5030972;28;20833;-72
2021/06/04 10:51:37;;;;;;;19.80;18.60;;;26.60;21.40;;;;;;5031123;28;20402;-71
2021/06/04 10:54:17;;;;;;;10.90;10.33;;;24.20;27.40;;;;;;5031599;28;20536;-71
2021/06/04 10:56:55;;;;;;;5.93;5.60;;;22.40;30.80;;;;;;5030085;28;20424;-71
2021/06/04 10:59:48;;;;;;;3.60;3.30;;;21.40;35.80;;;;;;5031193;28;20405;-72
2021/06/04 11:03:01;;;;;;;4.10;3.70;;;20.90;39.20;;;;;;5030654;28;20549;-72
2021/06/04 11:05:39;;;;;;;3.13;2.93;;;20.80;44.90;;;;;;5030271;28;20426;-71
2021/06/04 11:08:12;;;;;;;3.67;3.10;;;20.70;45.40;;;;;;5031138;28;20495;-71
2021/06/04 11:10:43;;;;;;;4.77;3.23;;;20.50;45.20;;;;;;5030833;28;20487;-70
2021/06/04 11:13:30;;;;;;;3.70;3.30;;;20.20;46.70;;;;;;5029950;28;20457;-73
2021/06/04 11:16:12;;;;;;;6.47;4.00;;;20.00;47.50;;;;;;5031145;28;20429;-71
2021/06/04 11:18:56;;;;;;;13.90;3.70;;;19.80;49.40;;;;;;5030829;28;20418;-71
2021/06/04 11:21:38;;;;;;;10.13;3.70;;;19.80;50.00;;;;;;5030931;28;20405;-71
2021/06/04 11:24:10;;;;;;;6.20;4.70;;;19.80;52.60;;;;;;5029568;28;20417;-71
2021/06/04 11:26:43;;;;;;;5.60;4.43;;;19.90;51.00;;;;;;5031080;28;20417;-71
2021/06/04 11:29:20;;;;;;;4.43;3.57;;;19.90;50.10;;;;;;5031227;28;20454;-72
2021/06/04 11:31:53;;;;;;;4.50;4.10;;;19.90;51.00;;;;;;5030746;28;20829;-72
2021/06/04 11:34:43;;;;;;;4.10;3.33;;;19.90;50.30;;;;;;5031066;28;20417;-72
2021/06/04 11:37:37;;;;;;;4.70;3.50;;;19.90;51.10;;;;;;5029745;28;20915;-70
2021/06/04 11:40:09;;;;;;;4.27;3.87;;;19.90;51.80;;;;;;5029383;28;20602;-69
2021/06/04 11:42:49;;;;;;;4.10;3.73;;;20.00;51.90;;;;;;5030733;28;20441;-72
2021/06/04 11:45:18;;;;;;;4.17;3.40;;;20.10;53.30;;;;;;5030634;28;20410;-72
2021/06/04 11:47:44;;;;;;;7.53;4.73;;;20.20;52.30;;;;;;5029260;28;20426;-71
2021/06/04 11:50:38;;;;;;;5.60;5.07;;;20.30;52.00;;;;;;5030196;28;20866;-72
2021/06/04 11:53:19;;;;;;;4.20;3.80;;;20.30;50.50;;;;;;5030007;28;20226;-72
2021/06/04 11:55:45;;;;;;;8.37;5.03;;;20.30;50.50;;;;;;5032023;28;20422;-73
2021/06/04 11:58:29;;;;;;;7.37;3.53;;;20.40;50.60;;;;;;5035461;28;20446;-73
2021/06/04 12:01:17;;;;;;;5.80;4.27;;;20.40;49.40;;;;;;5035012;28;20176;-72
2021/06/04 12:04:13;;;;;;;5.90;4.00;;;20.40;50.60;;;;;;5036483;28;20420;-73
2021/06/04 12:06:42;;;;;;;11.23;4.00;;;20.50;49.80;;;;;;5029989;28;20505;-71
2021/06/04 12:09:32;;;;;;;3.50;3.20;;;20.60;48.70;;;;;;5029944;28;20510;-71
2021/06/04 12:12:16;;;;;;;3.60;3.20;;;20.80;48.30;;;;;;5030323;28;20425;-72
2021/06/04 12:15:02;;;;;;;4.07;3.37;;;20.90;46.70;;;;;;5030458;28;20409;-73
2021/06/04 12:17:38;;;;;;;5.00;4.50;;;21.00;46.00;;;;;;5031300;28;20418;-70
2021/06/04 12:20:37;;;;;;;5.80;4.60;;;21.10;46.10;;;;;;5033707;28;20413;-72
2021/06/04 12:23:30;;;;;;;4.37;3.80;;;21.40;47.50;;;;;;5033763;28;20430;-71
2021/06/04 12:25:59;;;;;;;6.83;4.90;;;21.60;47.40;;;;;;5034068;28;20923;-71
2021/06/04 12:28:28;;;;;;;10.00;4.60;;;21.90;46.50;;;;;;5033845;28;20406;-70
2021/06/04 12:30:59;;;;;;;5.40;3.13;;;22.10;44.90;;;;;;5039915;28;20410;-72
2021/06/04 12:33:42;;;;;;;4.20;3.80;;;22.30;44.60;;;;;;5040394;28;20490;-72
2021/06/04 12:36:29;;;;;;;9.93;3.97;;;22.70;43.80;;;;;;5040462;28;20902;-72
2021/06/04 12:39:14;;;;;;;3.70;3.30;;;22.80;43.00;;;;;;5040410;28;20460;-73
2021/06/04 12:41:40;;;;;;;5.20;4.67;;;22.90;41.40;;;;;;5040898;28;20476;-72
2021/06/04 12:44:10;;;;;;;6.37;4.10;;;23.10;41.70;;;;;;5039421;28;20467;-71
2021/06/04 12:46:36;;;;;;;4.17;3.37;;;23.40;39.30;;;;;;5041147;28;20206;-72
2021/06/04 12:49:11;;;;;;;4.30;4.00;;;23.50;38.80;;;;;;5039914;28;20465;-72
2021/06/04 12:51:44;;;;;;;6.03;4.17;;;23.80;40.20;;;;;;5038615;28;20217;-72
2021/06/04 12:54:12;;;;;;;6.67;3.90;;;24.20;40.50;;;;;;5041257;28;20909;-72
2021/06/04 12:56:58;;;;;;;5.10;3.90;;;24.60;37.40;;;;;;5041022;28;20406;-70
2021/06/04 12:59:30;;;;;;;5.70;3.93;;;24.90;36.10;;;;;;5040528;28;20416;-72
2021/06/04 13:01:59;;;;;;;7.30;3.17;;;25.10;35.10;;;;;;5038834;28;20454;-72
2021/06/04 13:04:46;;;;;;;5.10;3.57;;;25.20;35.00;;;;;;5040437;28;20418;-71
2021/06/04 13:07:18;;;;;;;4.73;3.47;;;25.20;34.50;;;;;;5041137;28;20512;-73
2021/06/04 13:10:29;;;;;;;4.40;4.00;;;25.20;33.70;;;;;;5040820;28;20556;-73
2021/06/04 13:13:17;;;;;;;3.77;3.47;;;25.70;32.70;;;;;;5040234;28;20959;-72